Time;durP1;ratioP1;P1;durP2;ratioP2;P2;SDS_P1;SDS_P2;PMS_P1;PMS_P2;Temp;Humidity;BMP_temperature;BMP_pressure;BME280_temperature;BME280_humidity;BME280_pressure;Samples;Min_cycle;Max_cycle;Signal;HPM_P1;HPM_P2
2023/01/17 00:01:53;;;;;;;15.10;13.70;;;;;;;4.21;72.61;93650.81;5116493;28;20198;-72
2023/01/17 00:09:52;;;;;;;15.75;14.32;;;;;;;4.26;72.68;93636.91;5115757;28;20600;-72
2023/01/17 00:12:20;;;;;;;16.83;15.32;;;;;;;4.24;72.57;93665.69;5115490;28;20192;-71
2023/01/17 00:14:46;;;;;;;17.33;15.73;;;;;;;4.20;72.27;93645.69;5116343;28;20200;-71
2023/01/17 00:17:13;;;;;;;16.85;15.35;;;;;;;4.23;72.55;93653.19;5116222;28;20183;-71
2023/01/17 01:34:22;;;;;;;18.50;16.77;;;;;;;4.28;73.19;93618.22;5114182;28;20200;-71
2023/01/17 01:36:49;;;;;;;17.63;16.02;;;;;;;4.28;73.37;93610.03;5114634;28;20200;-71
2023/01/17 01:39:16;;;;;;;18.27;16.50;;;;;;;4.27;73.25;93621.31;5115165;28;20204;-72
2023/01/17 01:41:42;;;;;;;17.98;16.25;;;;;;;4.26;73.32;93636.91;5115267;28;20245;-72
2023/01/17 01:44:43;;;;;;;17.48;15.88;;;;;;;4.32;73.07;93600.03;5114390;28;20199;-71
2023/01/17 01:47:13;;;;;;;18.23;16.52;;;;;;;4.34;73.13;93605.13;5113988;28;20242;-71
2023/01/17 01:49:40;;;;;;;17.52;15.77;;;;;;;4.30;73.24;93596.84;5114296;28;20204;-71
2023/01/17 01:52:08;;;;;;;17.42;15.82;;;;;;;4.27;73.27;93583.91;5115273;28;20188;-71
2023/01/17 01:54:37;;;;;;;18.80;17.08;;;;;;;4.23;73.61;93565.84;5115132;28;20599;-72
2023/01/17 01:57:05;;;;;;;18.17;16.48;;;;;;;4.20;73.29;93604.75;5113535;28;20663;-72
2023/01/17 01:59:33;;;;;;;17.75;16.05;;;;;;;4.23;73.51;93606.78;5113989;28;20272;-72
2023/01/17 02:02:00;;;;;;;18.20;16.50;;;;;;;4.30;73.61;93624.16;5114334;28;20191;-72
2023/01/17 02:04:28;;;;;;;17.38;15.77;;;;;;;4.33;73.38;93600.81;5117457;28;20249;-71
2023/01/17 02:07:00;;;;;;;16.95;15.20;;;;;;;4.34;73.40;93597.72;5117962;28;20191;-71
2023/01/17 02:09:27;;;;;;;17.23;15.63;;;;;;;4.34;73.43;93588.75;5118467;28;20184;-71
2023/01/17 02:11:54;;;;;;;16.50;15.00;;;;;;;4.33;73.64;93589.91;5117922;28;20195;-71
2023/01/17 02:14:22;;;;;;;19.65;17.65;;;;;;;4.37;73.54;93600.91;5117938;28;20183;-71
2023/01/17 02:16:58;;;;;;;18.77;16.77;;;;;;;4.41;73.37;93604.53;5118603;28;20191;-72
2023/01/17 02:19:39;;;;;;;19.38;17.48;;;;;;;4.42;73.07;93579.59;5118488;28;20207;-72
2023/01/17 02:22:24;;;;;;;18.38;16.63;;;;;;;4.48;73.33;93586.41;5117562;28;20248;-72
2023/01/17 02:25:03;;;;;;;17.10;15.50;;;;;;;4.48;73.29;93586.41;5117562;28;20206;-71
2023/01/17 02:27:37;;;;;;;17.27;15.55;;;;;;;4.51;73.36;93610.28;5118611;28;20581;-71
2023/01/17 02:30:34;;;;;;;16.90;15.40;;;;;;;4.49;73.55;93598.91;5117666;28;20195;-71
2023/01/17 02:33:10;;;;;;;17.15;15.45;;;;;;;4.48;73.23;93602.00;5118221;28;20195;-71
2023/01/17 02:35:44;;;;;;;18.08;16.38;;;;;;;4.46;73.71;93588.69;5118269;27;20183;-71
2023/01/17 02:38:20;;;;;;;16.90;15.23;;;;;;;4.46;73.65;93601.53;5117025;28;20269;-71
2023/01/17 02:40:49;;;;;;;17.05;15.32;;;;;;;4.49;73.59;93587.97;5117300;28;20230;-71
2023/01/17 02:43:16;;;;;;;17.05;15.32;;;;;;;4.50;73.79;93586.03;5117698;28;20199;-71
2023/01/17 02:45:45;;;;;;;15.80;14.30;;;;;;;4.50;74.01;93586.03;5118001;27;20188;-71
2023/01/17 02:48:14;;;;;;;17.33;15.63;;;;;;;4.55;73.80;93577.59;5117933;28;20621;-71
2023/01/17 02:50:54;;;;;;;16.65;15.10;;;;;;;4.55;74.42;93570.22;5116826;28;20203;-71
2023/01/17 02:53:31;;;;;;;16.00;14.50;;;;;;;4.54;74.48;93579.56;5116888;28;20203;-71
2023/01/17 02:56:03;;;;;;;16.40;14.90;;;;;;;4.58;74.70;93574.19;5117661;28;20246;-71
2023/01/17 02:58:40;;;;;;;16.48;14.90;;;;;;;4.57;74.88;93556.19;5117423;28;20607;-71
2023/01/17 03:01:17;;;;;;;17.10;15.40;;;;;;;4.54;74.58;93560.44;5116729;28;20242;-71
2023/01/17 03:03:49;;;;;;;18.05;16.10;;;;;;;4.51;75.10;93572.06;5117828;28;20215;-71
2023/01/17 03:06:18;;;;;;;16.77;15.02;;;;;;;4.55;75.02;93577.59;5117659;28;20256;-71
2023/01/17 03:08:47;;;;;;;17.10;15.50;;;;;;;4.57;74.85;93561.66;5116678;28;20192;-71
2023/01/17 03:11:15;;;;;;;16.35;14.75;;;;;;;4.54;74.95;93560.44;5117140;28;20696;-71
2023/01/17 03:13:42;;;;;;;16.45;14.85;;;;;;;4.54;75.06;93546.00;5117423;28;20202;-71
2023/01/17 03:16:13;;;;;;;15.77;14.27;;;;;;;4.52;74.93;93542.81;5117157;28;20607;-71
2023/01/17 03:18:40;;;;;;;15.63;14.23;;;;;;;4.51;75.01;93563.06;5117408;28;20196;-71
2023/01/17 03:21:07;;;;;;;18.90;17.13;;;;;;;4.52;74.91;93538.13;5117241;28;20203;-71
2023/01/17 03:23:34;;;;;;;16.23;14.73;;;;;;;4.55;74.58;93553.03;5117696;28;20199;-71
2023/01/17 03:26:01;;;;;;;15.82;14.32;;;;;;;4.52;74.73;93540.88;5116694;28;20256;-71
2023/01/17 03:28:28;;;;;;;15.32;13.75;;;;;;;4.49;75.18;93571.59;5116004;28;20196;-71
2023/01/17 03:30:54;;;;;;;15.23;13.82;;;;;;;4.50;75.43;93564.19;5116263;28;20220;-71
2023/01/17 03:33:23;;;;;;;16.38;14.88;;;;;;;4.47;75.52;93564.94;5117140;28;20599;-71
2023/01/17 03:35:49;;;;;;;16.92;15.32;;;;;;;4.43;75.72;93566.75;5117304;28;20183;-71
2023/01/17 03:38:16;;;;;;;17.80;16.00;;;;;;;4.46;75.75;93582.44;5116216;28;20195;-71
2023/01/17 03:40:43;;;;;;;15.52;14.07;;;;;;;4.48;76.03;93544.66;5116077;28;20226;-72
2023/01/17 03:43:10;;;;;;;14.63;13.32;;;;;;;4.50;76.08;93562.28;5116877;28;20195;-71
2023/01/17 03:45:37;;;;;;;15.98;14.48;;;;;;;4.53;75.96;93558.03;5115861;28;20258;-71
2023/01/17 03:48:05;;;;;;;15.02;13.73;;;;;;;4.55;76.16;93580.34;5116186;28;20264;-71
2023/01/17 03:50:33;;;;;;;14.95;13.55;;;;;;;4.57;76.14;93578.03;5116016;28;20199;-71
2023/01/17 03:52:59;;;;;;;14.13;12.90;;;;;;;4.59;76.23;93571.09;5116721;28;20198;-71
2023/01/17 03:55:26;;;;;;;14.88;13.50;;;;;;;4.58;76.09;93563.25;5115731;28;20239;-71
2023/01/17 03:57:53;;;;;;;14.25;13.02;;;;;;;4.59;76.19;93538.31;5116720;28;20200;-71
2023/01/17 04:00:21;;;;;;;14.70;13.40;;;;;;;4.64;76.15;93552.84;5115939;28;20214;-71
2023/01/17 04:02:48;;;;;;;13.82;12.48;;;;;;;4.64;76.04;93556.38;5116599;28;20194;-71
2023/01/17 04:05:15;;;;;;;13.50;12.32;;;;;;;4.69;75.97;93564.31;5115282;28;20252;-71
2023/01/17 04:07:44;;;;;;;14.30;12.90;;;;;;;4.68;76.17;93583.78;5115677;28;20226;-71
2023/01/17 04:10:11;;;;;;;15.13;13.73;;;;;;;4.67;76.23;93582.97;5116090;27;20482;-71
2023/01/17 04:12:37;;;;;;;14.95;13.65;;;;;;;4.70;76.09;93581.50;5116384;28;20198;-71
2023/01/17 04:15:05;;;;;;;14.98;13.68;;;;;;;4.69;76.00;93591.63;5116242;28;20184;-71
2023/01/17 04:17:32;;;;;;;14.82;13.43;;;;;;;4.73;76.15;93587.03;5115293;28;20195;-71
2023/01/17 04:19:58;;;;;;;14.10;12.77;;;;;;;4.78;75.99;93605.88;5115554;28;20277;-71
2023/01/17 04:22:25;;;;;;;13.65;12.43;;;;;;;4.76;76.51;93599.22;5116017;28;20256;-72
2023/01/17 04:24:53;;;;;;;13.98;12.73;;;;;;;4.78;75.99;93605.88;5115165;28;20196;-71
2023/01/17 04:27:20;;;;;;;12.30;11.07;;;;;;;4.81;75.98;93597.00;5115039;28;20192;-71
2023/01/17 04:29:47;;;;;;;12.15;10.85;;;;;;;4.87;75.96;93592.06;5115115;28;20188;-71
2023/01/17 04:32:14;;;;;;;12.13;10.85;;;;;;;4.92;76.27;93578.13;5115697;28;20616;-72
2023/01/17 04:34:40;;;;;;;12.98;11.68;;;;;;;4.94;76.14;93581.31;5115272;28;20268;-72
2023/01/17 04:37:07;;;;;;;12.00;10.90;;;;;;;4.97;75.50;93593.47;5115146;28;20191;-71
2023/01/17 04:39:34;;;;;;;12.88;11.57;;;;;;;4.95;75.30;93563.78;5115514;28;20188;-71
2023/01/17 04:42:02;;;;;;;11.45;10.35;;;;;;;4.95;76.01;93579.38;5115578;28;20187;-71
2023/01/17 04:44:29;;;;;;;12.15;10.95;;;;;;;4.95;75.96;93582.91;5115074;28;20249;-71
2023/01/17 04:46:56;;;;;;;13.77;12.38;;;;;;;4.97;75.17;93612.59;5115541;28;20180;-71
2023/01/17 04:49:23;;;;;;;12.48;11.18;;;;;;;5.00;75.84;93585.34;5114884;28;20203;-70
2023/01/17 04:51:50;;;;;;;11.63;10.48;;;;;;;5.01;75.80;93600.63;5098084;28;20199;-70
2023/01/17 04:54:17;;;;;;;11.00;9.93;;;;;;;5.01;75.40;93589.69;5114554;28;20211;-71
2023/01/17 04:56:44;;;;;;;14.48;13.00;;;;;;;5.01;75.43;93611.56;5114375;28;20254;-71
2023/01/17 04:59:12;;;;;;;21.63;19.63;;;;;;;4.89;75.98;93613.56;5114784;28;20215;-71
2023/01/17 05:01:39;;;;;;;22.63;20.52;;;;;;;4.86;76.16;93625.97;5113874;28;20457;-72
2023/01/17 05:04:06;;;;;;;21.73;19.67;;;;;;;4.86;76.03;93633.38;5114813;28;20607;-70
2023/01/17 05:06:32;;;;;;;19.05;17.25;;;;;;;4.89;75.63;93610.84;5115542;28;20180;-69
2023/01/17 05:09:01;;;;;;;15.70;14.40;;;;;;;4.92;75.59;93642.91;5114513;28;20600;-71
2023/01/17 05:11:28;;;;;;;16.00;14.50;;;;;;;4.92;75.46;93634.72;5115494;28;20278;-71
2023/01/17 05:13:55;;;;;;;13.60;12.40;;;;;;;4.91;75.85;93642.13;5115257;28;20518;-71
2023/01/17 05:16:23;;;;;;;12.07;11.07;;;;;;;4.95;75.45;93643.00;5115527;28;20300;-71
2023/01/17 05:18:52;;;;;;;13.02;11.82;;;;;;;4.96;75.76;93647.31;5114546;28;20204;-71
2023/01/17 05:21:19;;;;;;;13.07;11.98;;;;;;;4.99;75.56;93643.88;5114109;28;20280;-71
2023/01/17 05:23:45;;;;;;;11.70;10.70;;;;;;;5.06;75.13;93640.53;5114762;28;20199;-71
2023/01/17 05:26:12;;;;;;;12.27;11.20;;;;;;;5.03;75.18;93606.50;5114522;28;20203;-71
2023/01/17 05:28:39;;;;;;;11.57;10.57;;;;;;;5.01;75.10;93606.09;5115144;28;20507;-71
2023/01/17 05:31:06;;;;;;;11.35;10.40;;;;;;;5.01;75.37;93605.28;5115228;28;20180;-71
2023/01/17 05:33:34;;;;;;;11.50;10.55;;;;;;;5.07;74.90;93598.41;5115121;28;20619;-71
2023/01/17 05:36:02;;;;;;;11.10;10.20;;;;;;;5.05;74.87;93596.03;5114673;28;20199;-71
2023/01/17 05:38:29;;;;;;;11.40;10.40;;;;;;;5.02;74.47;93593.22;5116359;28;20248;-71
2023/01/17 05:40:55;;;;;;;11.93;10.82;;;;;;;5.03;75.08;93611.97;5118311;28;20212;-71
2023/01/17 05:43:22;;;;;;;16.85;15.15;;;;;;;5.02;74.68;93587.75;5118323;28;20245;-71
2023/01/17 05:45:49;;;;;;;16.30;14.80;;;;;;;5.02;74.70;93606.88;5118253;28;20263;-71
2023/01/17 05:48:16;;;;;;;16.42;14.88;;;;;;;4.98;75.13;93609.53;5118436;28;20203;-71
2023/01/17 05:50:45;;;;;;;17.42;15.68;;;;;;;5.00;75.18;93587.28;5118158;28;20253;-71
2023/01/17 05:53:13;;;;;;;19.13;17.33;;;;;;;4.98;74.71;93582.19;5117756;28;20198;-71
2023/01/17 05:55:40;;;;;;;18.73;17.02;;;;;;;5.01;74.88;93580.69;5118812;28;20231;-71
2023/01/17 05:58:09;;;;;;;16.90;15.20;;;;;;;5.02;75.02;93580.34;5117986;28;20528;-71
2023/01/17 06:00:36;;;;;;;18.10;16.23;;;;;;;5.02;75.34;93588.53;5118971;28;20212;-71
2023/01/17 06:03:03;;;;;;;17.58;15.73;;;;;;;5.01;75.33;93576.03;5118820;27;20191;-71
2023/01/17 06:05:31;;;;;;;16.83;15.32;;;;;;;5.02;75.32;93582.28;5118826;28;20188;-71
2023/01/17 06:07:59;;;;;;;13.93;12.73;;;;;;;5.04;75.12;93569.03;5118463;28;20533;-71
2023/01/17 06:10:28;;;;;;;13.10;12.00;;;;;;;5.05;75.10;93565.97;5118029;28;20642;-71
2023/01/17 06:13:05;;;;;;;11.77;10.65;;;;;;;5.16;74.95;93573.63;5118296;28;20260;-71
2023/01/17 06:15:32;;;;;;;11.50;10.50;;;;;;;5.23;74.87;93547.25;5118324;28;20187;-71
2023/01/17 06:18:04;;;;;;;11.48;10.35;;;;;;;5.26;74.78;93554.72;5117837;28;20196;-71
2023/01/17 06:20:32;;;;;;;11.27;10.18;;;;;;;5.25;75.20;93531.28;5117456;28;20216;-71
2023/01/17 06:23:03;;;;;;;10.55;9.63;;;;;;;5.24;75.15;93546.09;5117576;28;20245;-71
2023/01/17 06:25:29;;;;;;;10.65;9.75;;;;;;;5.29;75.17;93550.50;5118524;28;20198;-71
2023/01/17 06:27:56;;;;;;;11.98;11.07;;;;;;;5.33;74.63;93565.03;5117789;28;20615;-71
2023/01/17 06:30:23;;;;;;;11.00;9.93;;;;;;;5.38;74.71;93574.91;5118605;28;20233;-71
2023/01/17 06:32:52;;;;;;;10.90;9.90;;;;;;;5.38;75.31;93581.19;5117560;28;20200;-71
2023/01/17 06:35:19;;;;;;;9.45;8.55;;;;;;;5.49;74.88;93584.16;5118218;28;20198;-71
2023/01/17 06:37:46;;;;;;;9.38;8.57;;;;;;;5.52;74.94;93589.69;5118430;28;20224;-71
2023/01/17 06:40:14;;;;;;;10.60;9.63;;;;;;;5.61;74.78;93588.69;5118333;28;20199;-71
2023/01/17 06:42:41;;;;;;;9.60;8.60;;;;;;;5.70;74.28;93606.50;5117300;28;20218;-71
2023/01/17 06:45:09;;;;;;;8.35;7.65;;;;;;;5.79;74.39;93609.03;5118009;28;20198;-71
2023/01/17 06:47:38;;;;;;;8.45;7.75;;;;;;;5.87;73.76;93594.34;5118086;28;20192;-71
2023/01/17 06:50:06;;;;;;;8.70;7.90;;;;;;;5.94;73.87;93593.72;5116623;28;20188;-71
2023/01/17 06:52:33;;;;;;;9.18;8.38;;;;;;;6.02;73.41;93611.88;5118034;28;20190;-71
2023/01/17 06:55:00;;;;;;;10.57;9.57;;;;;;;6.10;73.78;93582.72;5117298;28;20241;-71
2023/01/17 06:57:28;;;;;;;10.20;9.25;;;;;;;6.12;73.82;93577.69;5116507;28;20259;-71
2023/01/17 06:59:55;;;;;;;11.20;10.10;;;;;;;6.25;73.29;93601.81;5118136;28;20184;-71
2023/01/17 07:02:22;;;;;;;12.90;11.68;;;;;;;6.36;72.77;93612.97;5117512;28;20199;-71
2023/01/17 07:04:49;;;;;;;14.50;12.35;;;;;;;6.38;72.99;93596.16;5117665;28;20267;-71
2023/01/17 07:07:16;;;;;;;15.45;14.05;;;;;;;6.37;72.30;93608.28;5099375;28;20203;-71
2023/01/17 07:09:42;;;;;;;13.18;11.27;;;;;;;6.38;72.32;93579.75;5117491;28;20192;-71
2023/01/17 07:12:09;;;;;;;13.60;12.23;;;;;;;6.33;72.89;93613.69;5116564;28;20195;-71
2023/01/17 07:14:37;;;;;;;13.77;12.45;;;;;;;6.34;72.86;93607.06;5116499;28;20195;-71
2023/01/17 07:17:04;;;;;;;11.25;10.00;;;;;;;6.32;72.99;93606.63;5116027;28;20191;-71
2023/01/17 07:19:31;;;;;;;16.02;13.15;;;;;;;6.33;72.95;93596.47;5116374;28;20230;-71
2023/01/17 07:21:58;;;;;;;12.48;11.18;;;;;;;6.44;72.85;93592.78;5116481;28;20222;-72
2023/01/17 07:24:24;;;;;;;4.65;2.95;;;;;;;6.96;72.02;93587.81;5116940;28;20195;-71
2023/01/17 07:26:51;;;;;;;2.25;1.73;;;;;;;7.50;69.98;93569.47;5117139;28;20184;-71
2023/01/17 07:29:19;;;;;;;3.20;2.90;;;;;;;7.83;69.23;93597.00;5116733;28;20191;-71
2023/01/17 07:31:48;;;;;;;3.03;2.30;;;;;;;8.00;67.94;93581.16;5117041;28;20180;-71
2023/01/17 07:34:15;;;;;;;2.08;1.98;;;;;;;8.27;66.69;93582.66;5117108;27;20199;-71
2023/01/17 07:36:42;;;;;;;4.18;1.80;;;;;;;8.57;65.80;93592.84;5116219;28;20199;-71
2023/01/17 07:39:09;;;;;;;2.25;1.60;;;;;;;8.72;65.15;93586.34;5116020;28;20187;-71
2023/01/17 07:41:40;;;;;;;2.45;1.73;;;;;;;8.87;64.70;93577.06;5116894;28;20203;-71
2023/01/17 07:44:06;;;;;;;1.95;1.77;;;;;;;8.98;64.68;93582.66;5117272;28;20198;-71
2023/01/17 07:46:33;;;;;;;1.80;1.70;;;;;;;9.09;64.18;93578.03;5116822;27;20566;-72
2023/01/17 07:49:02;;;;;;;2.30;2.10;;;;;;;9.18;63.88;93577.72;5116765;28;20183;-72
2023/01/17 07:51:29;;;;;;;1.80;1.70;;;;;;;9.30;63.01;93588.44;5117322;28;20184;-72
2023/01/17 07:53:56;;;;;;;2.42;1.85;;;;;;;9.58;61.43;93592.56;5116756;28;20253;-72
2023/01/17 07:56:23;;;;;;;1.73;1.63;;;;;;;9.65;61.08;93598.91;5116299;28;20240;-71
2023/01/17 07:58:50;;;;;;;1.65;1.52;;;;;;;9.71;61.41;93593.84;5116378;28;20286;-71
2023/01/17 08:01:17;;;;;;;1.90;1.80;;;;;;;9.76;61.39;93587.97;5097861;28;20329;-71
2023/01/17 08:03:44;;;;;;;2.30;2.10;;;;;;;9.74;61.22;93617.88;5116652;28;20592;-71
2023/01/17 08:06:18;;;;;;;2.35;2.00;;;;;;;9.84;60.91;93595.13;5115950;28;20196;-71
2023/01/17 08:08:45;;;;;;;2.45;2.25;;;;;;;9.81;61.46;93590.38;5115636;28;20256;-71
2023/01/17 08:11:12;;;;;;;1.75;1.65;;;;;;;9.82;60.97;93591.19;5115989;28;20534;-71
2023/01/17 08:13:39;;;;;;;2.00;1.90;;;;;;;9.89;60.69;93613.25;5116343;28;20253;-72
2023/01/17 08:16:06;;;;;;;3.25;1.65;;;;;;;9.95;60.93;93594.38;5115395;28;20202;-71
2023/01/17 08:18:33;;;;;;;3.13;1.95;;;;;;;9.99;60.79;93600.72;5114492;28;20211;-71
2023/01/17 08:21:00;;;;;;;2.00;1.80;;;;;;;10.04;60.73;93598.38;5114948;28;20222;-71
2023/01/17 08:23:29;;;;;;;2.10;1.90;;;;;;;10.12;60.83;93610.22;5116183;28;20199;-71
2023/01/17 08:26:00;;;;;;;2.42;2.22;;;;;;;10.15;60.79;93619.69;5115251;28;20294;-71
2023/01/17 08:28:26;;;;;;;2.00;1.90;;;;;;;10.21;60.17;93599.66;5116071;28;20183;-71
2023/01/17 08:30:53;;;;;;;1.88;1.77;;;;;;;10.36;59.26;93609.59;5114836;28;20203;-71
2023/01/17 08:33:20;;;;;;;2.08;1.98;;;;;;;10.41;59.68;93591.91;5116038;28;20233;-71
2023/01/17 08:35:53;;;;;;;3.13;1.83;;;;;;;10.47;59.30;93604.13;5115479;28;20195;-71
2023/01/17 08:38:22;;;;;;;2.97;2.25;;;;;;;10.53;59.54;93621.91;5115415;28;20281;-71
2023/01/17 08:40:50;;;;;;;2.05;1.85;;;;;;;10.59;58.89;93589.22;5114708;28;20196;-71
2023/01/17 08:43:17;;;;;;;2.00;1.80;;;;;;;10.65;58.87;93620.75;5115825;28;20195;-71
2023/01/17 08:45:45;;;;;;;2.10;1.90;;;;;;;10.73;58.99;93619.59;5115842;27;20203;-71
2023/01/17 08:48:12;;;;;;;2.63;2.42;;;;;;;10.74;58.99;93623.91;5115581;28;20188;-71
2023/01/17 08:50:39;;;;;;;2.08;1.88;;;;;;;10.79;58.50;93611.75;5114929;28;20324;-71
2023/01/17 08:53:06;;;;;;;2.40;2.20;;;;;;;10.82;58.98;93613.69;5114818;28;20256;-71
2023/01/17 08:55:36;;;;;;;2.28;2.08;;;;;;;10.81;58.72;93590.06;5115116;28;20296;-72
2023/01/17 08:58:04;;;;;;;2.30;2.10;;;;;;;10.83;58.62;93604.25;5115808;27;20192;-71
2023/01/17 09:00:31;;;;;;;3.67;2.53;;;;;;;10.84;58.04;93592.03;5115652;28;20199;-71
2023/01/17 09:02:58;;;;;;;2.45;2.25;;;;;;;10.86;58.13;93592.44;5114698;28;20219;-71
2023/01/17 09:05:25;;;;;;;2.95;1.95;;;;;;;10.84;58.27;93587.31;5114028;28;20214;-71
2023/01/17 09:07:52;;;;;;;2.80;2.60;;;;;;;10.86;58.25;93586.94;5097936;28;20294;-71
2023/01/17 09:10:19;;;;;;;2.15;2.00;;;;;;;10.87;57.92;93598.75;5114553;28;20202;-72
2023/01/17 09:12:46;;;;;;;2.33;2.05;;;;;;;10.93;57.93;93592.47;5117180;28;20252;-72
2023/01/17 09:15:18;;;;;;;2.17;1.95;;;;;;;11.00;57.81;93610.97;5119903;28;20190;-72
2023/01/17 09:17:45;;;;;;;2.30;2.10;;;;;;;11.08;57.22;93587.78;5118819;28;20252;-72
2023/01/17 09:20:13;;;;;;;2.38;2.10;;;;;;;11.16;56.92;93580.28;5119691;28;20179;-71
2023/01/17 09:22:39;;;;;;;2.42;2.08;;;;;;;11.18;56.78;93564.88;5119511;28;20218;-71
2023/01/17 09:25:07;;;;;;;6.72;2.08;;;;;;;11.23;56.82;93572.78;5119252;28;20188;-71
2023/01/17 09:27:34;;;;;;;2.53;1.80;;;;;;;11.29;56.79;93571.22;5119622;28;20188;-71
2023/01/17 09:30:01;;;;;;;1.77;1.67;;;;;;;11.37;56.41;93588.59;5119423;28;20187;-71
2023/01/17 09:32:29;;;;;;;2.42;1.92;;;;;;;11.42;56.45;93570.84;5118350;28;20249;-71
2023/01/17 09:34:56;;;;;;;3.00;1.92;;;;;;;11.50;56.02;93547.56;5118321;28;20200;-71
2023/01/17 09:37:23;;;;;;;1.98;1.63;;;;;;;11.62;55.51;93568.44;5118382;28;20204;-71
2023/01/17 09:39:50;;;;;;;1.67;1.40;;;;;;;11.66;55.27;93545.19;5118555;28;20191;-71
2023/01/17 09:42:20;;;;;;;3.70;1.95;;;;;;;11.68;55.26;93544.78;5118378;28;20207;-71
2023/01/17 09:44:50;;;;;;;2.10;1.70;;;;;;;11.65;55.02;93568.44;5118363;28;20203;-71
2023/01/17 09:47:20;;;;;;;1.90;1.73;;;;;;;11.64;54.76;93572.38;5119155;28;20192;-72
2023/01/17 09:49:48;;;;;;;2.10;1.73;;;;;;;11.64;55.10;93568.84;5118174;28;20618;-71
2023/01/17 09:52:18;;;;;;;2.10;1.80;;;;;;;11.62;55.09;93583.06;5117977;28;20616;-71
2023/01/17 09:54:47;;;;;;;2.10;1.90;;;;;;;11.62;55.13;93579.50;5117989;28;20195;-72
2023/01/17 09:57:24;;;;;;;2.55;1.90;;;;;;;11.62;55.31;93585.81;5118184;28;20235;-72
2023/01/17 09:59:54;;;;;;;2.25;2.05;;;;;;;11.66;55.24;93605.16;5119046;28;20188;-72
2023/01/17 10:02:40;;;;;;;2.88;1.80;;;;;;;11.66;55.46;93592.13;5118359;28;20265;-71
2023/01/17 10:05:31;;;;;;;2.70;1.90;;;;;;;11.68;55.82;93600.00;5117779;28;20630;-71
2023/01/17 10:08:10;;;;;;;1.92;1.83;;;;;;;11.63;55.54;93584.63;5105655;28;20212;-71
2023/01/17 10:10:41;;;;;;;2.05;1.95;;;;;;;11.62;55.98;93579.50;5117807;28;20257;-72
2023/01/17 10:13:17;;;;;;;3.28;1.70;;;;;;;11.63;55.44;93576.34;5117788;28;20191;-72
2023/01/17 10:15:56;;;;;;;3.58;1.88;;;;;;;11.62;55.14;93593.28;5118331;28;20191;-71
2023/01/17 10:18:43;;;;;;;1.88;1.73;;;;;;;11.66;55.71;93602.38;5118798;28;20264;-71
2023/01/17 10:21:15;;;;;;;1.90;1.65;;;;;;;11.69;55.96;93585.81;5117500;28;20226;-71
2023/01/17 10:23:55;;;;;;;2.80;1.92;;;;;;;11.74;55.76;93601.19;5116820;28;20608;-71
2023/01/17 10:26:24;;;;;;;2.22;1.65;;;;;;;11.79;54.58;93609.06;5118545;28;20199;-72
2023/01/17 10:28:52;;;;;;;1.70;1.60;;;;;;;11.79;54.87;93600.78;5117389;28;20200;-72
2023/01/17 10:31:22;;;;;;;1.70;1.60;;;;;;;11.79;54.48;93587.75;5118039;28;20210;-71
2023/01/17 10:33:51;;;;;;;2.53;1.80;;;;;;;11.80;55.09;93600.41;5119893;28;20188;-72
2023/01/17 10:36:21;;;;;;;2.85;1.95;;;;;;;11.83;55.29;93607.09;5119593;28;20678;-71
2023/01/17 10:38:51;;;;;;;2.22;1.75;;;;;;;11.88;54.72;93614.25;5118484;28;20260;-72
2023/01/17 10:41:24;;;;;;;2.00;1.80;;;;;;;11.91;54.87;93603.19;5118459;28;20207;-72
2023/01/17 10:43:58;;;;;;;2.70;1.70;;;;;;;11.92;54.60;93595.69;5118936;28;20188;-71
2023/01/17 10:46:28;;;;;;;1.92;1.42;;;;;;;11.90;54.73;93590.53;5118998;28;20577;-72
2023/01/17 10:48:55;;;;;;;3.67;2.00;;;;;;;11.90;54.93;93590.53;5119558;28;20180;-71
2023/01/17 10:51:42;;;;;;;2.40;2.05;;;;;;;11.92;54.42;93598.44;5118451;28;20203;-72
2023/01/17 10:54:19;;;;;;;1.55;1.40;;;;;;;11.92;53.87;93592.91;5119707;28;20199;-70
2023/01/17 10:56:46;;;;;;;2.60;2.20;;;;;;;11.96;54.11;93604.75;5119206;28;20235;-71
2023/01/17 10:59:26;;;;;;;1.63;1.52;;;;;;;11.91;53.94;93602.38;5118872;28;20208;-72
2023/01/17 11:01:52;;;;;;;2.90;2.65;;;;;;;11.91;55.06;93594.91;5119882;28;20199;-72
2023/01/17 11:04:21;;;;;;;2.38;2.17;;;;;;;11.88;54.08;93595.69;5118967;28;20253;-70
2023/01/17 11:07:10;;;;;;;2.67;2.17;;;;;;;11.88;54.02;93598.44;5118176;28;20203;-71
2023/01/17 11:09:38;;;;;;;1.80;1.70;;;;;;;11.89;53.66;93577.91;5118321;28;20199;-71
2023/01/17 11:12:05;;;;;;;3.00;2.10;;;;;;;11.89;54.10;93575.16;5117824;28;20196;-71
2023/01/17 11:14:34;;;;;;;2.00;1.80;;;;;;;11.90;53.25;93598.03;5117983;28;20625;-71
2023/01/17 11:17:02;;;;;;;2.15;1.58;;;;;;;11.92;53.37;93565.28;5117453;28;20202;-71
2023/01/17 11:19:31;;;;;;;1.70;1.60;;;;;;;11.95;53.06;93568.06;5118525;28;20253;-71
2023/01/17 11:22:03;;;;;;;1.70;1.60;;;;;;;12.00;52.70;93555.78;5117935;28;20217;-72
2023/01/17 11:24:35;;;;;;;2.70;1.50;;;;;;;12.03;52.40;93557.75;5118071;28;20188;-71
2023/01/17 11:27:03;;;;;;;1.73;1.50;;;;;;;12.06;52.44;93545.91;5118244;28;20207;-71
2023/01/17 11:29:35;;;;;;;1.50;1.40;;;;;;;12.07;52.33;93547.50;5118513;28;20256;-71
2023/01/17 11:32:34;;;;;;;1.50;1.38;;;;;;;12.09;52.23;93531.31;5117345;28;20187;-71
2023/01/17 11:35:18;;;;;;;2.95;1.58;;;;;;;12.10;51.40;93524.59;5110616;28;20214;-71
2023/01/17 11:37:51;;;;;;;1.60;1.50;;;;;;;12.14;51.31;93508.00;5117257;28;20223;-72
2023/01/17 11:40:24;;;;;;;1.95;1.52;;;;;;;12.16;52.23;93538.75;5117988;28;20195;-72
2023/01/17 11:43:00;;;;;;;1.58;1.40;;;;;;;12.16;51.01;93516.66;5116867;28;20208;-71
2023/01/17 11:45:28;;;;;;;2.08;1.50;;;;;;;12.16;50.97;93519.41;5117975;28;20195;-72
2023/01/17 11:48:13;;;;;;;1.73;1.60;;;;;;;12.14;50.97;93494.94;5118172;28;20604;-71
2023/01/17 11:50:42;;;;;;;2.30;1.42;;;;;;;12.15;50.95;93479.16;5117864;28;20260;-71
2023/01/17 11:53:22;;;;;;;1.73;1.63;;;;;;;12.15;51.31;93498.50;5116375;28;20628;-71
2023/01/17 11:55:56;;;;;;;1.60;1.50;;;;;;;12.15;51.24;93495.75;5116526;28;20238;-72
2023/01/17 11:58:23;;;;;;;2.15;1.60;;;;;;;12.15;51.51;93479.94;5117999;28;20190;-71
2023/01/17 12:00:58;;;;;;;2.35;1.73;;;;;;;12.19;51.38;93475.19;5117349;28;20199;-72
2023/01/17 12:03:35;;;;;;;1.40;1.30;;;;;;;12.21;51.17;93464.53;5117435;28;20267;-71
2023/01/17 12:06:06;;;;;;;1.65;1.55;;;;;;;12.20;51.22;93485.06;5117969;28;20190;-71
2023/01/17 12:08:43;;;;;;;1.50;1.40;;;;;;;12.20;50.79;93456.63;5117728;28;20191;-72
2023/01/17 12:11:15;;;;;;;1.90;1.70;;;;;;;12.23;50.54;93442.78;5118115;28;20192;-72
2023/01/17 12:14:00;;;;;;;1.63;1.52;;;;;;;12.22;50.64;93445.97;5117718;28;20219;-71
2023/01/17 12:16:37;;;;;;;2.25;1.52;;;;;;;12.25;50.23;93453.44;5117632;28;20279;-71
2023/01/17 12:19:17;;;;;;;1.75;1.40;;;;;;;12.24;50.46;93449.91;5116809;28;20195;-72
2023/01/17 12:21:50;;;;;;;3.95;1.75;;;;;;;12.22;50.32;93441.22;5116683;28;20199;-71
2023/01/17 12:24:36;;;;;;;1.58;1.48;;;;;;;12.25;49.51;93431.34;5117095;28;20203;-71
2023/01/17 12:27:09;;;;;;;2.58;1.40;;;;;;;12.24;50.11;93443.59;5117877;28;20184;-72
2023/01/17 12:29:57;;;;;;;5.22;1.50;;;;;;;12.22;50.08;93423.84;5117604;28;20188;-71
2023/01/17 12:32:41;;;;;;;2.42;1.58;;;;;;;12.23;50.62;93440.00;5117364;28;20188;-71
2023/01/17 12:35:13;;;;;;;1.50;1.40;;;;;;;12.27;50.08;93462.91;5115437;28;20682;-72
2023/01/17 12:37:41;;;;;;;1.95;1.50;;;;;;;12.28;49.91;93420.25;5116701;27;20241;-71
2023/01/17 12:40:23;;;;;;;2.55;1.60;;;;;;;12.31;50.09;93439.97;5116900;28;20200;-71
2023/01/17 12:42:53;;;;;;;1.45;1.27;;;;;;;12.37;49.42;93419.03;5116816;28;20219;-71
2023/01/17 12:45:23;;;;;;;1.58;1.40;;;;;;;12.39;49.92;93422.97;5117522;28;20224;-72
2023/01/17 12:47:57;;;;;;;1.75;1.50;;;;;;;12.42;50.07;93430.44;5115666;28;20560;-71
2023/01/17 12:50:28;;;;;;;1.70;1.60;;;;;;;12.40;50.51;93426.50;5117069;28;20205;-71
2023/01/17 12:53:01;;;;;;;1.85;1.50;;;;;;;12.40;49.94;93441.13;5116104;28;20604;-72
2023/01/17 12:55:35;;;;;;;1.63;1.52;;;;;;;12.43;49.91;93401.59;5116897;28;20220;-71
2023/01/17 12:58:07;;;;;;;3.05;1.80;;;;;;;12.41;49.67;93425.31;5116416;28;20194;-70
2023/01/17 13:00:38;;;;;;;2.38;1.42;;;;;;;12.39;49.72;93428.50;5117385;28;20202;-71
2023/01/17 13:03:09;;;;;;;2.25;1.30;;;;;;;12.39;49.57;93433.25;5117255;28;20212;-71
2023/01/17 13:05:37;;;;;;;1.50;1.40;;;;;;;12.36;50.26;93411.94;5117347;28;20183;-72